sensor_id;sensor_type;location;lat;lon;timestamp;pressure;altitude;pressure_sealevel;temperature;humidity
29825;BME280;16713;52.916;12.834;2022-10-31T00:01:15;101231.44;;;8.49;82.85
29825;BME280;16713;52.916;12.834;2022-10-31T00:03:42;101237.03;;;8.53;82.34
29825;BME280;16713;52.916;12.834;2022-10-31T00:06:09;101242.03;;;8.51;82.05
29825;BME280;16713;52.916;12.834;2022-10-31T00:08:35;101240.63;;;8.45;82.60
29825;BME280;16713;52.916;12.834;2022-10-31T00:11:01;101243.03;;;8.46;82.59
29825;BME280;16713;52.916;12.834;2022-10-31T00:13:28;101245.44;;;8.48;81.75
29825;BME280;16713;52.916;12.834;2022-10-31T00:15:54;101246.91;;;8.37;81.50
29825;BME280;16713;52.916;12.834;2022-10-31T00:18:21;101240.31;;;8.38;82.95
29825;BME280;16713;52.916;12.834;2022-10-31T00:20:47;101246.25;;;8.40;81.99
29825;BME280;16713;52.916;12.834;2022-10-31T00:23:13;101246.44;;;8.35;81.78
29825;BME280;16713;52.916;12.834;2022-10-31T00:25:40;101247.09;;;8.32;83.09
29825;BME280;16713;52.916;12.834;2022-10-31T00:28:07;101247.69;;;8.37;81.47
29825;BME280;16713;52.916;12.834;2022-10-31T00:30:35;101247.56;;;8.34;81.95
29825;BME280;16713;52.916;12.834;2022-10-31T00:33:03;101250.47;;;8.29;82.18
29825;BME280;16713;52.916;12.834;2022-10-31T00:35:31;101258.66;;;8.29;82.31
29825;BME280;16713;52.916;12.834;2022-10-31T00:37:57;101258.00;;;8.32;83.64
29825;BME280;16713;52.916;12.834;2022-10-31T00:40:23;101265.72;;;8.30;83.89
29825;BME280;16713;52.916;12.834;2022-10-31T00:42:50;101270.06;;;8.31;82.04
29825;BME280;16713;52.916;12.834;2022-10-31T00:45:16;101267.53;;;8.26;81.92
29825;BME280;16713;52.916;12.834;2022-10-31T00:47:42;101267.38;;;8.22;82.68
29825;BME280;16713;52.916;12.834;2022-10-31T00:50:09;101272.66;;;8.19;81.75
29825;BME280;16713;52.916;12.834;2022-10-31T00:52:35;101270.75;;;8.19;81.80
29825;BME280;16713;52.916;12.834;2022-10-31T00:55:02;101282.94;;;8.22;82.57
29825;BME280;16713;52.916;12.834;2022-10-31T00:57:28;101280.72;;;8.15;82.31
29825;BME280;16713;52.916;12.834;2022-10-31T00:59:54;101275.25;;;8.15;81.14
29825;BME280;16713;52.916;12.834;2022-10-31T01:02:21;101281.53;;;8.16;81.47
29825;BME280;16713;52.916;12.834;2022-10-31T01:04:47;101278.78;;;8.16;82.04
29825;BME280;16713;52.916;12.834;2022-10-31T01:07:14;101275.56;;;8.14;82.54
29825;BME280;16713;52.916;12.834;2022-10-31T01:09:40;101273.97;;;8.13;81.31
29825;BME280;16713;52.916;12.834;2022-10-31T01:12:07;101275.41;;;8.10;81.36
29825;BME280;16713;52.916;12.834;2022-10-31T01:14:33;101274.13;;;8.08;82.59
29825;BME280;16713;52.916;12.834;2022-10-31T01:17:00;101284.09;;;8.04;82.34
29825;BME280;16713;52.916;12.834;2022-10-31T01:19:27;101280.56;;;8.03;82.62
29825;BME280;16713;52.916;12.834;2022-10-31T01:21:54;101277.84;;;8.03;82.18
29825;BME280;16713;52.916;12.834;2022-10-31T01:24:21;101274.13;;;7.99;82.27
29825;BME280;16713;52.916;12.834;2022-10-31T01:26:47;101285.22;;;8.03;83.19
29825;BME280;16713;52.916;12.834;2022-10-31T01:29:13;101292.94;;;8.01;83.19
29825;BME280;16713;52.916;12.834;2022-10-31T01:31:40;101285.56;;;8.01;83.73
29825;BME280;16713;52.916;12.834;2022-10-31T01:34:06;101290.03;;;7.97;83.02
29825;BME280;16713;52.916;12.834;2022-10-31T01:36:35;101291.34;;;8.00;82.87
29825;BME280;16713;52.916;12.834;2022-10-31T01:39:09;101279.59;;;7.99;81.51
29825;BME280;16713;52.916;12.834;2022-10-31T01:41:37;101276.72;;;7.96;81.30
29825;BME280;16713;52.916;12.834;2022-10-31T01:47:07;101289.72;;;7.99;81.00
29825;BME280;16713;52.916;12.834;2022-10-31T01:49:59;101284.13;;;7.95;81.93
29825;BME280;16713;52.916;12.834;2022-10-31T01:52:31;101280.41;;;7.91;82.95
29825;BME280;16713;52.916;12.834;2022-10-31T01:55:08;101289.25;;;7.88;81.84
29825;BME280;16713;52.916;12.834;2022-10-31T01:57:37;101286.19;;;7.90;82.62
29825;BME280;16713;52.916;12.834;2022-10-31T02:00:08;101283.16;;;7.91;82.17
29825;BME280;16713;52.916;12.834;2022-10-31T02:02:35;101281.38;;;7.87;82.30
29825;BME280;16713;52.916;12.834;2022-10-31T02:05:05;101283.94;;;7.83;82.80
29825;BME280;16713;52.916;12.834;2022-10-31T02:07:48;101291.81;;;7.93;82.19
29825;BME280;16713;52.916;12.834;2022-10-31T02:10:16;101295.84;;;7.87;82.89
29825;BME280;16713;52.916;12.834;2022-10-31T02:12:43;101294.06;;;7.91;81.69
29825;BME280;16713;52.916;12.834;2022-10-31T02:15:10;101300.66;;;7.90;81.74
29825;BME280;16713;52.916;12.834;2022-10-31T02:17:37;101305.47;;;7.85;81.35
29825;BME280;16713;52.916;12.834;2022-10-31T02:20:15;101295.97;;;7.82;81.23
29825;BME280;16713;52.916;12.834;2022-10-31T02:26:06;101302.41;;;7.77;81.18
29825;BME280;16713;52.916;12.834;2022-10-31T02:28:47;101298.69;;;7.73;81.56
29825;BME280;16713;52.916;12.834;2022-10-31T02:34:00;101300.47;;;7.61;81.05
29825;BME280;16713;52.916;12.834;2022-10-31T02:36:38;101306.75;;;7.61;81.05
29825;BME280;16713;52.916;12.834;2022-10-31T02:39:23;101311.56;;;7.64;81.04
29825;BME280;16713;52.916;12.834;2022-10-31T02:44:35;101318.47;;;7.70;82.60
29825;BME280;16713;52.916;12.834;2022-10-31T02:47:08;101317.66;;;7.70;80.32
29825;BME280;16713;52.916;12.834;2022-10-31T02:49:49;101321.03;;;7.67;81.34
29825;BME280;16713;52.916;12.834;2022-10-31T02:52:21;101327.47;;;7.71;81.76
29825;BME280;16713;52.916;12.834;2022-10-31T02:54:49;101319.28;;;7.71;82.07
29825;BME280;16713;52.916;12.834;2022-10-31T02:57:20;101323.09;;;7.70;80.10
29825;BME280;16713;52.916;12.834;2022-10-31T02:59:53;101333.88;;;7.58;81.57
29825;BME280;16713;52.916;12.834;2022-10-31T03:03:11;101329.84;;;7.55;81.60
29825;BME280;16713;52.916;12.834;2022-10-31T03:10:56;101334.97;;;7.57;81.80
29825;BME280;16713;52.916;12.834;2022-10-31T03:13:49;101339.44;;;7.44;81.01
29825;BME280;16713;52.916;12.834;2022-10-31T03:16:29;101343.97;;;7.57;81.11
29825;BME280;16713;52.916;12.834;2022-10-31T03:19:12;101343.03;;;7.53;80.24
29825;BME280;16713;52.916;12.834;2022-10-31T03:21:45;101342.66;;;7.46;81.88
29825;BME280;16713;52.916;12.834;2022-10-31T03:24:13;101345.44;;;7.55;80.74
29825;BME280;16713;52.916;12.834;2022-10-31T03:26:46;101350.41;;;7.53;82.32
29825;BME280;16713;52.916;12.834;2022-10-31T03:29:16;101350.84;;;7.46;82.24
29825;BME280;16713;52.916;12.834;2022-10-31T03:34:37;101371.41;;;7.52;80.88
29825;BME280;16713;52.916;12.834;2022-10-31T03:37:08;101360.00;;;7.50;82.29
29825;BME280;16713;52.916;12.834;2022-10-31T03:39:38;101371.72;;;7.51;82.80
29825;BME280;16713;52.916;12.834;2022-10-31T03:42:10;101371.88;;;7.46;82.81
29825;BME280;16713;52.916;12.834;2022-10-31T03:44:37;101371.25;;;7.49;81.39
29825;BME280;16713;52.916;12.834;2022-10-31T03:47:07;101373.03;;;7.53;81.85
29825;BME280;16713;52.916;12.834;2022-10-31T03:49:34;101384.75;;;7.54;83.27
29825;BME280;16713;52.916;12.834;2022-10-31T03:54:35;101384.19;;;7.91;84.80
29825;BME280;16713;52.916;12.834;2022-10-31T04:00:02;101385.66;;;8.48;88.33
29825;BME280;16713;52.916;12.834;2022-10-31T04:02:31;101380.75;;;8.71;88.78
29825;BME280;16713;52.916;12.834;2022-10-31T04:04:59;101375.41;;;8.91;88.97
29825;BME280;16713;52.916;12.834;2022-10-31T04:07:29;101383.91;;;8.98;89.60
29825;BME280;16713;52.916;12.834;2022-10-31T04:09:57;101381.63;;;9.09;90.19
29825;BME280;16713;52.916;12.834;2022-10-31T04:12:26;101374.84;;;9.06;90.28
29825;BME280;16713;52.916;12.834;2022-10-31T04:14:55;101380.31;;;9.06;91.92
29825;BME280;16713;52.916;12.834;2022-10-31T04:17:25;101373.69;;;9.16;90.56
29825;BME280;16713;52.916;12.834;2022-10-31T04:19:53;101378.66;;;9.31;90.18
29825;BME280;16713;52.916;12.834;2022-10-31T04:22:19;101374.66;;;9.29;90.52
29825;BME280;16713;52.916;12.834;2022-10-31T04:24:46;101375.44;;;9.29;89.71
29825;BME280;16713;52.916;12.834;2022-10-31T04:27:12;101370.72;;;9.38;90.17
29825;BME280;16713;52.916;12.834;2022-10-31T04:29:38;101370.66;;;9.47;90.57
29825;BME280;16713;52.916;12.834;2022-10-31T04:32:05;101366.81;;;9.48;89.00
29825;BME280;16713;52.916;12.834;2022-10-31T04:34:31;101366.94;;;9.51;89.32
29825;BME280;16713;52.916;12.834;2022-10-31T04:36:57;101373.84;;;9.57;88.64
29825;BME280;16713;52.916;12.834;2022-10-31T04:39:23;101368.50;;;9.61;89.05
29825;BME280;16713;52.916;12.834;2022-10-31T04:41:52;101359.72;;;9.47;90.40
29825;BME280;16713;52.916;12.834;2022-10-31T04:44:18;101362.06;;;9.57;89.33
29825;BME280;16713;52.916;12.834;2022-10-31T04:46:44;101368.19;;;9.62;90.00
29825;BME280;16713;52.916;12.834;2022-10-31T04:49:11;101362.38;;;9.64;89.91
29825;BME280;16713;52.916;12.834;2022-10-31T04:51:37;101364.56;;;9.70;88.91
29825;BME280;16713;52.916;12.834;2022-10-31T04:54:04;101357.63;;;9.73;89.44
29825;BME280;16713;52.916;12.834;2022-10-31T04:56:30;101368.28;;;9.66;88.69
29825;BME280;16713;52.916;12.834;2022-10-31T04:58:56;101364.34;;;9.75;90.22
29825;BME280;16713;52.916;12.834;2022-10-31T05:01:23;101366.56;;;9.82;89.52
29825;BME280;16713;52.916;12.834;2022-10-31T05:03:49;101360.50;;;9.76;88.65
29825;BME280;16713;52.916;12.834;2022-10-31T05:06:16;101357.91;;;9.80;89.75
29825;BME280;16713;52.916;12.834;2022-10-31T05:08:42;101359.63;;;9.84;88.61
29825;BME280;16713;52.916;12.834;2022-10-31T05:11:09;101360.13;;;9.86;88.71
29825;BME280;16713;52.916;12.834;2022-10-31T05:13:35;101365.31;;;9.79;88.82
29825;BME280;16713;52.916;12.834;2022-10-31T05:16:01;101358.34;;;9.82;88.94
29825;BME280;16713;52.916;12.834;2022-10-31T05:18:28;101361.75;;;9.79;88.38
29825;BME280;16713;52.916;12.834;2022-10-31T05:20:55;101365.53;;;9.66;89.83
29825;BME280;16713;52.916;12.834;2022-10-31T05:23:21;101371.47;;;9.76;89.86
29825;BME280;16713;52.916;12.834;2022-10-31T05:25:47;101361.50;;;9.72;89.48
29825;BME280;16713;52.916;12.834;2022-10-31T05:28:14;101368.56;;;9.73;89.76
29825;BME280;16713;52.916;12.834;2022-10-31T05:30:40;101359.97;;;9.83;89.01
29825;BME280;16713;52.916;12.834;2022-10-31T05:33:07;101364.63;;;9.82;88.83
29825;BME280;16713;52.916;12.834;2022-10-31T05:35:33;101365.94;;;9.85;88.65
29825;BME280;16713;52.916;12.834;2022-10-31T05:37:59;101362.44;;;9.96;89.09
29825;BME280;16713;52.916;12.834;2022-10-31T05:40:27;101361.22;;;9.85;87.40
29825;BME280;16713;52.916;12.834;2022-10-31T05:42:55;101364.69;;;9.74;87.50
29825;BME280;16713;52.916;12.834;2022-10-31T05:45:22;101367.94;;;9.67;87.17
29825;BME280;16713;52.916;12.834;2022-10-31T05:47:50;101371.69;;;9.63;86.76
29825;BME280;16713;52.916;12.834;2022-10-31T05:50:17;101370.28;;;9.57;87.11
29825;BME280;16713;52.916;12.834;2022-10-31T05:52:44;101370.97;;;9.54;85.88
29825;BME280;16713;52.916;12.834;2022-10-31T05:55:11;101382.97;;;9.61;86.99
29825;BME280;16713;52.916;12.834;2022-10-31T05:57:37;101394.56;;;9.67;88.72
29825;BME280;16713;52.916;12.834;2022-10-31T06:00:05;101391.16;;;9.70;89.47
29825;BME280;16713;52.916;12.834;2022-10-31T06:02:32;101400.09;;;9.79;89.15
29825;BME280;16713;52.916;12.834;2022-10-31T06:05:01;101405.66;;;9.70;90.73
29825;BME280;16713;52.916;12.834;2022-10-31T06:07:32;101399.59;;;9.85;90.06
29825;BME280;16713;52.916;12.834;2022-10-31T06:09:58;101400.25;;;9.82;90.69
29825;BME280;16713;52.916;12.834;2022-10-31T06:12:24;101401.53;;;9.85;89.86
29825;BME280;16713;52.916;12.834;2022-10-31T06:14:51;101408.13;;;9.84;91.03
29825;BME280;16713;52.916;12.834;2022-10-31T06:17:17;101405.69;;;9.91;90.28
29825;BME280;16713;52.916;12.834;2022-10-31T06:19:43;101403.41;;;9.93;90.44
29825;BME280;16713;52.916;12.834;2022-10-31T06:22:10;101400.47;;;9.98;90.56
29825;BME280;16713;52.916;12.834;2022-10-31T06:24:37;101406.59;;;9.95;90.49
29825;BME280;16713;52.916;12.834;2022-10-31T06:27:05;101403.34;;;10.01;91.13
29825;BME280;16713;52.916;12.834;2022-10-31T06:29:31;101410.34;;;10.11;90.46
29825;BME280;16713;52.916;12.834;2022-10-31T06:31:58;101412.91;;;9.95;91.00
29825;BME280;16713;52.916;12.834;2022-10-31T06:34:24;101410.56;;;10.06;91.25
29825;BME280;16713;52.916;12.834;2022-10-31T06:36:50;101421.50;;;10.06;90.66
29825;BME280;16713;52.916;12.834;2022-10-31T06:39:16;101429.75;;;10.06;90.72
29825;BME280;16713;52.916;12.834;2022-10-31T06:41:43;101428.09;;;10.13;90.96
29825;BME280;16713;52.916;12.834;2022-10-31T06:44:09;101430.63;;;10.18;90.28
29825;BME280;16713;52.916;12.834;2022-10-31T06:46:35;101436.13;;;10.18;90.84
29825;BME280;16713;52.916;12.834;2022-10-31T06:49:02;101437.22;;;10.17;90.93
29825;BME280;16713;52.916;12.834;2022-10-31T06:51:28;101436.13;;;10.18;90.30
29825;BME280;16713;52.916;12.834;2022-10-31T06:53:55;101437.03;;;10.22;90.29
29825;BME280;16713;52.916;12.834;2022-10-31T06:56:21;101433.44;;;10.30;91.13
29825;BME280;16713;52.916;12.834;2022-10-31T06:58:47;101434.84;;;10.16;90.20
29825;BME280;16713;52.916;12.834;2022-10-31T07:01:14;101436.50;;;10.29;91.12
29825;BME280;16713;52.916;12.834;2022-10-31T07:03:40;101434.84;;;10.16;90.78
29825;BME280;16713;52.916;12.834;2022-10-31T07:06:06;101438.91;;;10.30;90.82
29825;BME280;16713;52.916;12.834;2022-10-31T07:08:33;101443.91;;;10.28;90.85
29825;BME280;16713;52.916;12.834;2022-10-31T07:10:59;101445.78;;;10.36;90.91
29825;BME280;16713;52.916;12.834;2022-10-31T07:13:26;101444.34;;;10.39;90.50
29825;BME280;16713;52.916;12.834;2022-10-31T07:16:00;101440.19;;;10.33;90.18
29825;BME280;16713;52.916;12.834;2022-10-31T07:18:27;101444.44;;;10.22;90.95
29825;BME280;16713;52.916;12.834;2022-10-31T07:20:53;101447.81;;;10.27;91.21
29825;BME280;16713;52.916;12.834;2022-10-31T07:23:20;101448.72;;;10.31;90.66
29825;BME280;16713;52.916;12.834;2022-10-31T07:25:46;101456.66;;;10.33;90.09
29825;BME280;16713;52.916;12.834;2022-10-31T07:28:13;101454.97;;;10.40;90.22
29825;BME280;16713;52.916;12.834;2022-10-31T07:30:39;101455.09;;;10.44;90.12
29825;BME280;16713;52.916;12.834;2022-10-31T07:33:06;101455.84;;;10.32;90.68
29825;BME280;16713;52.916;12.834;2022-10-31T07:35:32;101464.44;;;10.43;91.18
29825;BME280;16713;52.916;12.834;2022-10-31T07:38:08;101463.47;;;10.47;91.19
29825;BME280;16713;52.916;12.834;2022-10-31T07:40:35;101469.09;;;10.51;90.76
29825;BME280;16713;52.916;12.834;2022-10-31T07:43:01;101483.28;;;10.53;91.28
29825;BME280;16713;52.916;12.834;2022-10-31T07:45:28;101479.47;;;10.45;91.53
29825;BME280;16713;52.916;12.834;2022-10-31T07:47:54;101478.75;;;10.57;91.83
29825;BME280;16713;52.916;12.834;2022-10-31T07:50:28;101480.63;;;10.65;91.17
29825;BME280;16713;52.916;12.834;2022-10-31T07:52:59;101476.59;;;10.63;91.98
29825;BME280;16713;52.916;12.834;2022-10-31T07:55:26;101476.41;;;10.80;91.46
29825;BME280;16713;52.916;12.834;2022-10-31T07:57:58;101475.16;;;10.77;91.45
29825;BME280;16713;52.916;12.834;2022-10-31T08:00:25;101481.47;;;10.78;91.56
29825;BME280;16713;52.916;12.834;2022-10-31T08:03:09;101485.72;;;10.87;91.45
29825;BME280;16713;52.916;12.834;2022-10-31T08:05:37;101495.00;;;10.95;91.21
29825;BME280;16713;52.916;12.834;2022-10-31T08:08:04;101485.53;;;10.92;91.20
29825;BME280;16713;52.916;12.834;2022-10-31T08:10:31;101483.81;;;11.00;91.34
29825;BME280;16713;52.916;12.834;2022-10-31T08:13:00;101485.69;;;11.08;91.41
29825;BME280;16713;52.916;12.834;2022-10-31T08:15:27;101495.72;;;11.04;91.37
29825;BME280;16713;52.916;12.834;2022-10-31T08:17:54;101482.63;;;11.21;91.14
29825;BME280;16713;52.916;12.834;2022-10-31T08:20:20;101483.69;;;11.29;91.02
29825;BME280;16713;52.916;12.834;2022-10-31T08:23:05;101487.31;;;11.33;90.82
29825;BME280;16713;52.916;12.834;2022-10-31T08:25:33;101492.59;;;11.38;91.43
29825;BME280;16713;52.916;12.834;2022-10-31T08:28:05;101491.13;;;11.40;91.68
29825;BME280;16713;52.916;12.834;2022-10-31T08:30:34;101490.25;;;11.48;91.84
29825;BME280;16713;52.916;12.834;2022-10-31T08:33:10;101494.22;;;11.51;91.87
29825;BME280;16713;52.916;12.834;2022-10-31T08:35:36;101507.97;;;11.51;91.58
29825;BME280;16713;52.916;12.834;2022-10-31T08:38:04;101506.81;;;11.52;92.29
29825;BME280;16713;52.916;12.834;2022-10-31T08:40:32;101513.13;;;11.52;92.88
29825;BME280;16713;52.916;12.834;2022-10-31T08:43:00;101505.16;;;11.59;92.84
29825;BME280;16713;52.916;12.834;2022-10-31T08:45:27;101507.00;;;11.67;93.64
29825;BME280;16713;52.916;12.834;2022-10-31T08:48:03;101515.81;;;11.73;92.96
29825;BME280;16713;52.916;12.834;2022-10-31T08:50:32;101520.38;;;11.81;93.48
29825;BME280;16713;52.916;12.834;2022-10-31T08:53:00;101517.19;;;11.91;92.75
29825;BME280;16713;52.916;12.834;2022-10-31T08:55:33;101514.19;;;11.84;92.57
29825;BME280;16713;52.916;12.834;2022-10-31T08:58:00;101516.50;;;11.82;93.04
29825;BME280;16713;52.916;12.834;2022-10-31T09:00:27;101521.78;;;11.87;93.27
29825;BME280;16713;52.916;12.834;2022-10-31T09:02:57;101515.38;;;11.95;92.69
29825;BME280;16713;52.916;12.834;2022-10-31T09:05:24;101507.13;;;11.95;92.87
29825;BME280;16713;52.916;12.834;2022-10-31T09:07:55;101511.59;;;12.00;92.04
29825;BME280;16713;52.916;12.834;2022-10-31T09:10:21;101507.09;;;12.07;92.00
29825;BME280;16713;52.916;12.834;2022-10-31T09:12:57;101507.44;;;12.06;91.46
29825;BME280;16713;52.916;12.834;2022-10-31T09:15:25;101513.06;;;11.97;91.43
29825;BME280;16713;52.916;12.834;2022-10-31T09:17:52;101505.28;;;11.99;91.67
29825;BME280;16713;52.916;12.834;2022-10-31T09:20:20;101508.38;;;11.97;91.64
29825;BME280;16713;52.916;12.834;2022-10-31T09:22:46;101510.22;;;11.93;92.78
29825;BME280;16713;52.916;12.834;2022-10-31T09:25:13;101520.28;;;12.02;91.57
29825;BME280;16713;52.916;12.834;2022-10-31T09:27:39;101522.81;;;11.94;93.03
29825;BME280;16713;52.916;12.834;2022-10-31T09:30:06;101514.69;;;11.98;92.33
29825;BME280;16713;52.916;12.834;2022-10-31T09:32:33;101521.66;;;11.95;93.27
29825;BME280;16713;52.916;12.834;2022-10-31T09:34:59;101522.22;;;12.01;93.66
29825;BME280;16713;52.916;12.834;2022-10-31T09:37:25;101522.09;;;12.22;91.58
29825;BME280;16713;52.916;12.834;2022-10-31T09:39:52;101529.78;;;12.16;91.48
29825;BME280;16713;52.916;12.834;2022-10-31T09:50:40;101531.75;;;12.16;93.35
29825;BME280;16713;52.916;12.834;2022-10-31T09:53:12;101526.69;;;12.06;93.18
29825;BME280;16713;52.916;12.834;2022-10-31T09:55:44;101525.19;;;12.08;93.30
29825;BME280;16713;52.916;12.834;2022-10-31T09:58:27;101531.72;;;12.04;93.97
29825;BME280;16713;52.916;12.834;2022-10-31T10:00:58;101528.19;;;12.03;93.36
29825;BME280;16713;52.916;12.834;2022-10-31T10:03:28;101521.66;;;12.08;93.81
29825;BME280;16713;52.916;12.834;2022-10-31T10:06:10;101525.66;;;12.10;92.97
29825;BME280;16713;52.916;12.834;2022-10-31T10:08:37;101542.63;;;12.12;93.30
29825;BME280;16713;52.916;12.834;2022-10-31T10:11:27;101544.56;;;12.12;93.82
29825;BME280;16713;52.916;12.834;2022-10-31T10:14:08;101543.63;;;12.20;93.31
29825;BME280;16713;52.916;12.834;2022-10-31T10:16:47;101548.78;;;12.21;93.36
29825;BME280;16713;52.916;12.834;2022-10-31T10:22:25;101548.91;;;12.25;93.04
29825;BME280;16713;52.916;12.834;2022-10-31T10:28:03;101548.09;;;12.24;93.27
29825;BME280;16713;52.916;12.834;2022-10-31T10:30:44;101535.59;;;12.39;93.59
29825;BME280;16713;52.916;12.834;2022-10-31T10:33:15;101524.28;;;11.80;88.86
29825;BME280;16713;52.916;12.834;2022-10-31T10:35:47;101532.88;;;12.03;91.69
29825;BME280;16713;52.916;12.834;2022-10-31T10:38:30;101533.69;;;12.15;93.24
29825;BME280;16713;52.916;12.834;2022-10-31T10:41:01;101532.09;;;12.14;93.71
29825;BME280;16713;52.916;12.834;2022-10-31T10:43:34;101532.06;;;12.26;95.11
29825;BME280;16713;52.916;12.834;2022-10-31T10:46:26;101528.63;;;12.29;94.94
29825;BME280;16713;52.916;12.834;2022-10-31T10:49:37;101538.59;;;12.34;95.49
29825;BME280;16713;52.916;12.834;2022-10-31T10:52:35;101537.91;;;12.37;95.36
29825;BME280;16713;52.916;12.834;2022-10-31T10:55:23;101536.75;;;12.38;95.77
29825;BME280;16713;52.916;12.834;2022-10-31T11:02:51;101536.41;;;12.39;94.58
29825;BME280;16713;52.916;12.834;2022-10-31T11:08:03;101530.97;;;12.55;93.71
29825;BME280;16713;52.916;12.834;2022-10-31T11:10:31;101529.13;;;12.59;94.94
29825;BME280;16713;52.916;12.834;2022-10-31T11:18:26;101529.50;;;12.57;94.86
29825;BME280;16713;52.916;12.834;2022-10-31T11:20:58;101528.31;;;12.58;94.84
29825;BME280;16713;52.916;12.834;2022-10-31T11:23:27;101525.03;;;12.65;94.49
29825;BME280;16713;52.916;12.834;2022-10-31T11:28:22;101529.03;;;12.67;93.75
29825;BME280;16713;52.916;12.834;2022-10-31T11:30:52;101526.94;;;12.64;93.75
29825;BME280;16713;52.916;12.834;2022-10-31T11:33:32;101526.13;;;12.76;94.12
29825;BME280;16713;52.916;12.834;2022-10-31T11:36:02;101526.72;;;12.69;92.93
29825;BME280;16713;52.916;12.834;2022-10-31T11:38:40;101521.69;;;12.59;93.61
29825;BME280;16713;52.916;12.834;2022-10-31T11:41:09;101525.47;;;12.67;93.98
29825;BME280;16713;52.916;12.834;2022-10-31T11:43:38;101520.50;;;12.72;92.57
29825;BME280;16713;52.916;12.834;2022-10-31T11:46:10;101529.94;;;12.71;93.63
29825;BME280;16713;52.916;12.834;2022-10-31T11:48:37;101527.06;;;12.68;93.64
29825;BME280;16713;52.916;12.834;2022-10-31T11:51:04;101529.81;;;12.80;93.62
29825;BME280;16713;52.916;12.834;2022-10-31T11:53:33;101526.22;;;12.79;92.61
29825;BME280;16713;52.916;12.834;2022-10-31T11:56:13;101522.03;;;12.70;93.80
29825;BME280;16713;52.916;12.834;2022-10-31T11:58:39;101529.47;;;12.69;94.51
29825;BME280;16713;52.916;12.834;2022-10-31T12:01:22;101517.88;;;12.64;93.75
29825;BME280;16713;52.916;12.834;2022-10-31T12:04:06;101521.91;;;12.66;94.56
29825;BME280;16713;52.916;12.834;2022-10-31T12:06:44;101512.06;;;12.65;95.15
29825;BME280;16713;52.916;12.834;2022-10-31T12:09:20;101510.91;;;12.66;94.66
29825;BME280;16713;52.916;12.834;2022-10-31T12:12:23;101505.38;;;12.78;93.01
29825;BME280;16713;52.916;12.834;2022-10-31T12:15:10;101503.91;;;12.69;94.50
29825;BME280;16713;52.916;12.834;2022-10-31T12:18:12;101507.22;;;12.74;94.15
29825;BME280;16713;52.916;12.834;2022-10-31T12:20:56;101504.47;;;12.74;95.02
29825;BME280;16713;52.916;12.834;2022-10-31T12:26:20;101504.09;;;12.76;94.05
29825;BME280;16713;52.916;12.834;2022-10-31T12:29:14;101500.00;;;12.70;94.90
29825;BME280;16713;52.916;12.834;2022-10-31T12:37:42;101495.81;;;12.88;94.86
29825;BME280;16713;52.916;12.834;2022-10-31T12:43:25;101489.13;;;12.89;93.87
29825;BME280;16713;52.916;12.834;2022-10-31T12:45:58;101491.38;;;12.83;94.49
29825;BME280;16713;52.916;12.834;2022-10-31T13:04:43;101494.50;;;12.97;93.48
29825;BME280;16713;52.916;12.834;2022-10-31T13:07:31;101483.66;;;13.04;94.39
29825;BME280;16713;52.916;12.834;2022-10-31T13:12:42;101479.78;;;13.05;92.89
29825;BME280;16713;52.916;12.834;2022-10-31T13:15:19;101484.56;;;13.08;92.51
29825;BME280;16713;52.916;12.834;2022-10-31T13:17:59;101477.97;;;12.97;93.93
29825;BME280;16713;52.916;12.834;2022-10-31T13:20:30;101475.88;;;12.79;93.96
29825;BME280;16713;52.916;12.834;2022-10-31T13:23:10;101474.03;;;12.83;93.89
29825;BME280;16713;52.916;12.834;2022-10-31T13:26:02;101473.56;;;12.81;94.27
29825;BME280;16713;52.916;12.834;2022-10-31T13:28:40;101470.97;;;12.72;94.08
29825;BME280;16713;52.916;12.834;2022-10-31T13:31:08;101470.00;;;12.80;93.31
29825;BME280;16713;52.916;12.834;2022-10-31T13:33:43;101474.19;;;12.74;93.90
29825;BME280;16713;52.916;12.834;2022-10-31T13:36:23;101471.31;;;12.71;93.86
29825;BME280;16713;52.916;12.834;2022-10-31T13:38:52;101474.88;;;12.71;94.94
29825;BME280;16713;52.916;12.834;2022-10-31T13:48:58;101471.25;;;12.67;95.13
29825;BME280;16713;52.916;12.834;2022-10-31T13:51:32;101471.78;;;12.73;94.69
29825;BME280;16713;52.916;12.834;2022-10-31T13:54:20;101463.34;;;12.66;94.66
29825;BME280;16713;52.916;12.834;2022-10-31T13:56:52;101463.34;;;12.66;95.15
29825;BME280;16713;52.916;12.834;2022-10-31T13:59:21;101457.13;;;12.69;93.93
29825;BME280;16713;52.916;12.834;2022-10-31T14:01:59;101458.13;;;12.76;94.48
29825;BME280;16713;52.916;12.834;2022-10-31T14:04:54;101463.06;;;12.71;94.46
29825;BME280;16713;52.916;12.834;2022-10-31T14:07:23;101461.72;;;12.65;93.79
29825;BME280;16713;52.916;12.834;2022-10-31T14:09:54;101452.63;;;12.64;95.10
29825;BME280;16713;52.916;12.834;2022-10-31T14:14:57;101466.16;;;12.69;93.71
29825;BME280;16713;52.916;12.834;2022-10-31T14:17:27;101459.88;;;12.69;93.64
29825;BME280;16713;52.916;12.834;2022-10-31T14:20:01;101455.63;;;12.71;94.45
29825;BME280;16713;52.916;12.834;2022-10-31T14:22:32;101449.66;;;12.69;93.53
29825;BME280;16713;52.916;12.834;2022-10-31T14:25:31;101454.38;;;12.69;94.98
29825;BME280;16713;52.916;12.834;2022-10-31T14:28:00;101455.16;;;12.69;94.42
29825;BME280;16713;52.916;12.834;2022-10-31T14:30:29;101454.72;;;12.67;94.50
29825;BME280;16713;52.916;12.834;2022-10-31T14:33:01;101444.50;;;12.68;94.06
29825;BME280;16713;52.916;12.834;2022-10-31T14:36:22;101443.38;;;12.69;94.11
29825;BME280;16713;52.916;12.834;2022-10-31T14:38:54;101433.25;;;12.73;93.87
29825;BME280;16713;52.916;12.834;2022-10-31T14:52:49;101415.25;;;12.63;95.95